Time;durP1;ratioP1;P1;durP2;ratioP2;P2;SDS_P1;SDS_P2;PMS_P1;PMS_P2;Temp;Humidity;BMP_temperature;BMP_pressure;BME280_temperature;BME280_humidity;BME280_pressure;Samples;Min_cycle;Max_cycle;Signal;HPM_P1;HPM_P2
2022/05/27 00:02:10;;;;;;;6.57;2.42;;;;;;;17.44;57.43;101940.66;5010848;28;20034;-61
2022/05/27 00:04:35;;;;;;;5.65;2.40;;;;;;;17.40;57.82;101937.53;5010098;28;20417;-61
2022/05/27 00:07:01;;;;;;;5.50;2.17;;;;;;;17.42;57.82;101934.47;5009887;28;20038;-62
2022/05/27 00:09:26;;;;;;;5.68;2.17;;;;;;;17.48;57.79;101938.13;5009579;28;20117;-61
2022/05/27 00:11:51;;;;;;;9.15;2.22;;;;;;;17.44;57.88;101926.63;5006471;28;21163;-61
2022/05/27 00:14:17;;;;;;;5.32;2.05;;;;;;;17.46;57.80;101923.56;5004750;28;20022;-61
2022/05/27 00:16:48;;;;;;;6.65;2.40;;;;;;;17.46;58.05;101926.34;5008789;28;20663;-61
2022/05/27 00:19:13;;;;;;;7.90;2.20;;;;;;;17.42;58.02;101926.06;5009472;28;20404;-61
2022/05/27 00:21:39;;;;;;;7.55;2.58;;;;;;;17.43;58.04;101928.56;5009143;28;20034;-60
2022/05/27 00:24:05;;;;;;;5.45;2.33;;;;;;;17.38;58.24;101925.75;5010077;28;20046;-60
2022/05/27 00:26:31;;;;;;;7.03;2.22;;;;;;;17.39;58.36;101924.63;5006523;28;20034;-60
2022/05/27 00:28:57;;;;;;;4.22;2.13;;;;;;;17.40;58.42;101926.31;5006715;28;20512;-61
2022/05/27 00:31:22;;;;;;;6.13;2.20;;;;;;;17.40;58.37;101919.84;5008804;28;20121;-60
2022/05/27 00:33:47;;;;;;;4.95;2.05;;;;;;;17.41;58.59;101911.19;5007698;28;20034;-60
2022/05/27 00:36:14;;;;;;;7.20;2.40;;;;;;;17.30;58.89;101922.63;5009494;28;20392;-61
2022/05/27 00:38:40;;;;;;;8.93;2.47;;;;;;;17.33;58.75;101922.06;5008055;28;20050;-60
2022/05/27 00:41:06;;;;;;;6.95;2.45;;;;;;;17.30;58.88;101926.28;5009930;28;20026;-60
2022/05/27 00:43:31;;;;;;;9.50;2.72;;;;;;;17.33;58.69;101913.63;5007406;28;20045;-60
2022/05/27 00:46:05;;;;;;;7.95;2.33;;;;;;;17.35;58.71;101912.25;5013553;28;20390;-60
2022/05/27 00:48:35;;;;;;;7.68;2.50;;;;;;;17.32;58.87;101912.81;5010452;28;20045;-60
2022/05/27 00:51:04;;;;;;;4.60;2.40;;;;;;;17.27;58.94;101924.00;5009509;28;20034;-60
2022/05/27 00:53:37;;;;;;;7.10;2.25;;;;;;;17.34;58.91;101916.19;5013933;28;20085;-60
2022/05/27 00:56:05;;;;;;;8.77;2.60;;;;;;;17.29;59.08;101913.38;5011887;28;20049;-60
2022/05/27 00:58:59;;;;;;;8.15;2.55;;;;;;;17.27;59.32;101911.94;5012531;28;20485;-61
2022/05/27 01:01:25;;;;;;;11.43;3.10;;;;;;;17.30;59.71;101909.44;5006471;28;20413;-60
2022/05/27 01:03:51;;;;;;;7.10;2.72;;;;;;;17.24;59.96;101904.91;5013291;28;20474;-60
2022/05/27 01:06:17;;;;;;;8.07;2.63;;;;;;;17.25;60.19;101901.00;5012116;28;20032;-60
2022/05/27 01:08:44;;;;;;;9.25;2.78;;;;;;;17.24;60.05;101909.69;5012428;28;20033;-60
2022/05/27 01:11:36;;;;;;;8.85;2.72;;;;;;;17.30;59.81;101897.38;5012649;28;20038;-60
2022/05/27 01:14:08;;;;;;;;;;;;;;;17.45;58.53;101905.88;5012050;28;20578;-61
2022/05/27 01:17:01;;;;;;;8.80;3.42;;;;;;;17.33;60.16;101906.09;5014260;28;19913;-61
2022/05/27 01:23:10;;;;;;;9.25;2.80;;;;;;;17.25;61.02;101906.63;4993936;28;20049;-61
2022/05/27 01:25:50;;;;;;;11.63;3.63;;;;;;;17.23;61.26;101905.19;5006024;28;20054;-61
2022/05/27 01:28:37;;;;;;;12.73;3.35;;;;;;;17.20;61.61;101900.97;5011814;28;20034;-61
2022/05/27 01:31:16;;;;;;;8.57;3.53;;;;;;;17.16;62.41;101902.63;5011899;28;20501;-61
2022/05/27 01:34:10;;;;;;;10.68;3.60;;;;;;;17.23;62.49;101897.59;5012525;28;20401;-61
2022/05/27 01:36:57;;;;;;;8.05;3.40;;;;;;;17.04;63.92;101902.81;5007975;28;20073;-60
2022/05/27 01:39:44;;;;;;;9.13;3.90;;;;;;;17.04;63.14;101899.19;5011247;28;20046;-61
2022/05/27 01:42:15;;;;;;;10.50;3.75;;;;;;;17.02;64.07;101902.28;5011100;28;20026;-61
2022/05/27 01:44:43;;;;;;;10.93;3.80;;;;;;;16.98;64.26;101908.66;5012032;28;20045;-61
2022/05/27 01:47:16;;;;;;;9.65;3.83;;;;;;;16.92;64.89;101897.41;5012129;28;20104;-61
2022/05/27 01:49:49;;;;;;;9.60;3.88;;;;;;;16.92;65.11;101899.38;5011343;28;20033;-61
2022/05/27 01:52:34;;;;;;;9.23;4.18;;;;;;;16.99;64.41;101899.16;5011649;28;20117;-61
2022/05/27 01:55:12;;;;;;;9.40;4.05;;;;;;;16.97;64.92;101904.19;5012125;28;20033;-61
2022/05/27 01:57:48;;;;;;;11.77;4.07;;;;;;;16.90;65.82;101899.66;5012046;28;20041;-60
2022/05/27 02:00:23;;;;;;;11.23;4.53;;;;;;;16.89;65.76;101897.13;5002133;28;20026;-60
2022/05/27 02:03:01;;;;;;;7.88;4.05;;;;;;;16.85;65.90;101890.34;5013184;28;20397;-61
2022/05/27 02:05:32;;;;;;;15.27;4.00;;;;;;;16.78;66.85;101901.81;5012929;28;20454;-61
2022/05/27 02:08:05;;;;;;;8.13;3.92;;;;;;;16.82;66.70;101900.19;5011256;28;20041;-61
2022/05/27 02:10:59;;;;;;;;;;;;;;;17.00;63.86;101892.44;5004130;28;20021;-60
2022/05/27 02:13:39;;;;;;;10.50;4.32;;;;;;;16.79;66.21;101895.09;4999417;28;19917;-61
2022/05/27 02:16:08;;;;;;;9.60;4.05;;;;;;;16.75;67.33;101904.31;5012657;28;20056;-60
2022/05/27 02:18:47;;;;;;;12.57;4.50;;;;;;;16.71;67.15;101892.78;5011667;28;20034;-61
2022/05/27 02:21:18;;;;;;;11.25;4.40;;;;;;;16.67;67.79;101889.66;5011367;28;20053;-60
2022/05/27 02:24:07;;;;;;;10.63;4.73;;;;;;;16.73;66.86;101898.97;5011231;28;20038;-61
2022/05/27 02:26:39;;;;;;;13.00;5.22;;;;;;;16.67;67.93;101900.03;5009625;28;20034;-60
2022/05/27 02:29:12;;;;;;;11.20;4.57;;;;;;;16.68;67.97;101888.53;4994162;28;20026;-60
2022/05/27 02:31:41;;;;;;;9.82;5.15;;;;;;;16.65;68.43;101902.25;5009437;28;20418;-60
2022/05/27 02:37:03;;;;;;;14.25;5.10;;;;;;;16.59;68.49;101898.56;5011289;28;20048;-60
2022/05/27 02:39:28;;;;;;;9.38;5.00;;;;;;;16.61;68.81;101892.69;5010233;28;20336;-60
2022/05/27 02:42:02;;;;;;;9.30;4.57;;;;;;;16.61;68.60;101882.31;5006644;28;20034;-60
2022/05/27 02:44:39;;;;;;;11.13;5.20;;;;;;;16.59;68.90;101887.34;5010879;28;20092;-60
2022/05/27 02:47:33;;;;;;;11.77;5.57;;;;;;;16.61;68.05;101878.66;5011330;28;20041;-60
2022/05/27 02:50:12;;;;;;;8.95;5.10;;;;;;;16.53;69.06;101881.97;5004284;28;20056;-60
2022/05/27 02:52:57;;;;;;;8.60;5.47;;;;;;;16.56;68.64;101887.88;5009346;28;20049;-60
2022/05/27 02:55:26;;;;;;;12.52;5.57;;;;;;;16.45;69.41;101884.16;5011202;28;20040;-60
2022/05/27 02:57:54;;;;;;;9.88;5.50;;;;;;;16.46;69.54;101893.38;5009672;28;20030;-60
2022/05/27 03:00:23;;;;;;;8.57;6.03;;;;;;;16.34;70.01;101879.56;4999876;28;20030;-61
2022/05/27 03:02:49;;;;;;;10.80;5.63;;;;;;;16.40;69.88;101886.91;5012865;28;20192;-61
2022/05/27 03:05:17;;;;;;;8.73;6.00;;;;;;;16.32;70.24;101881.81;5009902;28;20549;-61
2022/05/27 03:07:51;;;;;;;7.65;5.55;;;;;;;16.33;70.03;101877.88;5009071;28;20119;-61
2022/05/27 03:10:35;;;;;;;7.70;6.03;;;;;;;16.31;69.92;101876.44;5010025;28;20030;-61
2022/05/27 03:13:32;;;;;;;9.15;6.25;;;;;;;16.37;69.70;101878.19;5010743;28;20038;-61
2022/05/27 03:16:11;;;;;;;9.20;5.95;;;;;;;16.30;70.05;101881.22;4993536;28;20038;-60
2022/05/27 03:18:54;;;;;;;10.25;6.38;;;;;;;16.39;69.25;101871.22;5006814;28;20540;-60
2022/05/27 03:21:40;;;;;;;10.00;6.70;;;;;;;16.33;69.74;101880.69;5009911;28;20073;-60
2022/05/27 03:24:37;;;;;;;12.07;6.40;;;;;;;16.39;69.86;101881.59;5010461;28;20042;-60
2022/05/27 03:27:17;;;;;;;10.15;7.00;;;;;;;16.34;70.15;101873.97;5000206;28;20105;-60
2022/05/27 03:30:15;;;;;;;7.80;7.00;;;;;;;16.36;69.85;101877.34;5009485;28;20109;-60
2022/05/27 03:32:48;;;;;;;9.70;6.50;;;;;;;16.29;70.44;101879.53;5006165;28;20033;-60
2022/05/27 03:35:30;;;;;;;10.60;7.25;;;;;;;16.29;70.42;101876.72;5010719;28;20053;-60
2022/05/27 03:38:24;;;;;;;11.27;7.70;;;;;;;16.33;70.09;101883.47;5009411;28;20083;-60
2022/05/27 03:41:14;;;;;;;8.02;6.78;;;;;;;16.34;70.12;101879.56;5010074;28;20544;-60
2022/05/27 03:43:40;;;;;;;10.77;7.28;;;;;;;16.31;70.87;101885.72;5010374;28;20393;-60
2022/05/27 03:46:06;;;;;;;8.48;7.28;;;;;;;16.31;71.27;101893.25;5009886;28;20033;-60
2022/05/27 03:48:33;;;;;;;11.65;7.40;;;;;;;16.31;70.98;101887.66;5010459;28;20025;-60
2022/05/27 03:51:07;;;;;;;10.75;7.10;;;;;;;16.33;71.00;101897.50;5009181;28;20046;-60
2022/05/27 03:56:16;;;;;;;5.55;4.40;;;;;;;16.37;70.06;101883.78;5000401;28;20582;-60
2022/05/27 03:58:44;;;;;;;5.05;3.55;;;;;;;16.28;69.16;101880.66;5009197;28;20121;-60
2022/05/27 04:01:09;;;;;;;3.92;3.08;;;;;;;16.26;68.65;101885.66;5008731;28;20519;-60
2022/05/27 04:03:35;;;;;;;4.78;2.95;;;;;;;16.16;68.98;101882.78;5009161;28;20033;-60
2022/05/27 04:06:00;;;;;;;5.00;3.08;;;;;;;16.16;69.10;101878.00;5010896;28;20446;-60
2022/05/27 04:08:25;;;;;;;4.45;2.75;;;;;;;16.12;69.32;101882.47;5010259;28;20485;-62
2022/05/27 04:10:50;;;;;;;5.50;3.10;;;;;;;16.15;69.46;101883.88;5008512;28;20036;-60
2022/05/27 04:13:16;;;;;;;5.82;3.40;;;;;;;16.12;69.33;101888.06;5009751;28;20042;-60
2022/05/27 04:15:41;;;;;;;5.63;3.05;;;;;;;16.14;69.43;101890.59;5010151;28;20044;-60
2022/05/27 04:18:06;;;;;;;5.05;2.97;;;;;;;16.09;69.89;101888.59;5009102;28;20040;-60
2022/05/27 04:20:32;;;;;;;6.32;3.47;;;;;;;16.07;70.02;101892.75;5014418;28;20045;-60
2022/05/27 04:22:57;;;;;;;4.82;3.35;;;;;;;16.09;70.29;101894.19;5013562;28;20547;-60
2022/05/27 04:25:22;;;;;;;5.35;3.75;;;;;;;16.12;70.47;101893.66;5008856;28;20053;-60
2022/05/27 04:27:48;;;;;;;5.60;4.03;;;;;;;16.13;70.79;101894.50;5011096;28;20782;-60
2022/05/27 04:30:14;;;;;;;4.93;4.45;;;;;;;16.11;71.47;101905.13;5014280;28;20022;-60
2022/05/27 04:32:40;;;;;;;7.72;5.07;;;;;;;16.10;71.65;101897.81;5012716;28;20041;-60
2022/05/27 04:35:07;;;;;;;6.70;5.53;;;;;;;16.12;71.80;101901.22;5014787;28;20029;-61
2022/05/27 04:37:33;;;;;;;7.95;5.68;;;;;;;16.12;71.89;101893.66;5015465;28;20056;-60
2022/05/27 04:39:58;;;;;;;12.25;6.53;;;;;;;16.13;72.18;101894.50;5012326;28;20493;-61
2022/05/27 04:42:24;;;;;;;8.77;6.10;;;;;;;16.14;72.17;101901.78;5015164;28;20025;-60
2022/05/27 04:44:49;;;;;;;12.38;6.32;;;;;;;16.14;72.11;101891.44;5002646;28;20057;-61
2022/05/27 04:47:14;;;;;;;9.32;6.13;;;;;;;16.13;72.31;101895.34;5010732;28;20042;-61
2022/05/27 04:49:53;;;;;;;10.38;6.85;;;;;;;16.16;72.82;101893.97;5014113;28;20030;-60
2022/05/27 04:52:21;;;;;;;8.02;6.60;;;;;;;16.15;72.77;101897.88;5013696;28;20551;-60
2022/05/27 04:54:46;;;;;;;9.55;6.55;;;;;;;16.13;73.02;101892.53;5014039;28;20109;-61
2022/05/27 04:57:24;;;;;;;9.77;6.78;;;;;;;16.17;72.94;101901.25;5013661;28;20121;-60
2022/05/27 04:59:49;;;;;;;12.30;6.95;;;;;;;16.21;73.05;101902.44;5005324;28;20128;-61
2022/05/27 05:02:17;;;;;;;12.27;7.25;;;;;;;16.17;73.41;101901.25;5007805;28;20116;-61
2022/05/27 05:04:43;;;;;;;10.05;7.43;;;;;;;16.19;73.45;101901.81;5010760;28;20064;-61
2022/05/27 05:07:08;;;;;;;11.55;7.28;;;;;;;16.22;73.40;101903.25;5005162;28;20417;-61
2022/05/27 05:09:38;;;;;;;11.15;7.60;;;;;;;16.29;73.07;101907.53;5013574;28;20037;-61
2022/05/27 05:12:05;;;;;;;14.48;7.40;;;;;;;16.30;73.27;101913.97;5012477;28;20040;-61
2022/05/27 05:14:31;;;;;;;14.25;7.68;;;;;;;16.29;74.00;101910.34;5011762;28;20036;-61
2022/05/27 05:16:56;;;;;;;14.27;7.57;;;;;;;16.34;73.60;101906.75;5009329;28;20034;-61
2022/05/27 05:19:21;;;;;;;13.07;7.30;;;;;;;16.36;73.85;101918.53;5013522;28;20094;-61
2022/05/27 05:21:47;;;;;;;14.20;7.60;;;;;;;16.43;73.38;101919.16;5013630;28;20401;-61
2022/05/27 05:24:12;;;;;;;12.50;8.30;;;;;;;16.42;73.78;101926.69;5013058;28;20424;-60
2022/05/27 05:26:37;;;;;;;12.38;7.30;;;;;;;16.42;73.78;101914.66;5012743;28;20021;-60
2022/05/27 05:29:02;;;;;;;15.32;6.85;;;;;;;16.47;73.52;101925.09;5011096;28;20038;-61
2022/05/27 05:31:28;;;;;;;15.50;7.28;;;;;;;16.47;73.42;101927.91;5007147;28;20026;-60
2022/05/27 05:33:58;;;;;;;16.85;6.78;;;;;;;16.51;73.11;101940.25;5012783;28;20030;-60
2022/05/27 05:36:23;;;;;;;13.23;6.90;;;;;;;16.49;73.02;101942.47;5014012;28;20022;-60
2022/05/27 05:38:49;;;;;;;15.23;6.38;;;;;;;16.51;73.11;101941.09;5009507;28;20034;-61
2022/05/27 05:41:33;;;;;;;14.52;6.72;;;;;;;16.55;72.35;101936.66;5012272;28;20037;-61
2022/05/27 05:43:59;;;;;;;16.88;6.30;;;;;;;16.54;72.66;101943.34;5010913;28;20403;-61
2022/05/27 05:46:26;;;;;;;16.27;6.22;;;;;;;16.55;72.51;101942.25;5008219;28;20029;-60
2022/05/27 05:48:51;;;;;;;14.02;5.75;;;;;;;16.58;72.28;101949.25;5004350;28;20038;-60
2022/05/27 05:51:17;;;;;;;16.60;5.95;;;;;;;16.62;71.95;101954.09;5009290;28;20022;-60
2022/05/27 05:53:43;;;;;;;14.65;5.72;;;;;;;16.59;72.01;101957.44;5001679;28;20470;-60
2022/05/27 05:56:09;;;;;;;16.88;5.63;;;;;;;16.61;71.73;101957.16;5009400;28;20041;-60
2022/05/27 05:58:34;;;;;;;13.65;5.72;;;;;;;16.64;71.30;101953.81;5009874;28;20030;-60
2022/05/27 06:01:03;;;;;;;13.63;5.28;;;;;;;16.62;71.21;101951.28;5006001;28;20026;-60
2022/05/27 06:03:28;;;;;;;11.38;5.88;;;;;;;16.64;71.51;101953.81;5006932;28;20482;-60
2022/05/27 06:05:53;;;;;;;14.10;4.85;;;;;;;16.69;70.77;101948.25;5011682;28;20056;-61
2022/05/27 06:08:19;;;;;;;13.40;5.15;;;;;;;16.72;70.81;101950.53;5007871;28;20059;-61
2022/05/27 06:10:48;;;;;;;13.10;5.10;;;;;;;16.72;70.54;101952.47;5007701;28;20029;-61
2022/05/27 06:13:14;;;;;;;11.68;4.32;;;;;;;16.79;70.21;101958.75;5009923;28;20501;-61
2022/05/27 06:15:40;;;;;;;13.70;4.70;;;;;;;16.77;69.35;101949.75;5006191;28;20109;-61
2022/05/27 06:18:06;;;;;;;11.95;4.22;;;;;;;16.80;69.39;101943.59;5006999;28;20110;-61
2022/05/27 06:20:35;;;;;;;12.15;4.38;;;;;;;16.77;69.11;101947.78;5004684;28;20489;-61
2022/05/27 06:23:05;;;;;;;10.10;4.03;;;;;;;16.82;68.71;101955.38;5005767;28;20066;-61
2022/05/27 06:25:30;;;;;;;8.95;4.00;;;;;;;16.81;68.04;101960.16;5006276;28;20157;-61
2022/05/27 06:34:23;;;;;;;11.02;3.63;;;;;;;17.05;66.83;101963.41;5009920;28;20153;-61
2022/05/27 06:36:10;;;;;;;10.93;4.15;;;;;;;17.21;66.85;101964.34;5004620;28;20100;-62
2022/05/27 06:38:37;;;;;;;11.40;3.92;;;;;;;17.25;66.90;101970.28;5010152;28;20484;-61
2022/05/27 06:41:03;;;;;;;7.22;3.38;;;;;;;17.36;66.30;101972.03;5000817;28;20541;-63
2022/05/27 06:43:28;;;;;;;8.20;3.13;;;;;;;17.40;66.35;101968.41;4989563;28;20030;-62
2022/05/27 06:45:53;;;;;;;8.30;2.90;;;;;;;17.46;65.30;101971.25;5005871;28;20810;-62
2022/05/27 06:48:19;;;;;;;9.90;2.72;;;;;;;17.45;64.78;101967.63;5007673;28;20042;-62
2022/05/27 06:50:44;;;;;;;10.95;3.03;;;;;;;17.53;64.36;101963.44;5001395;28;20029;-60
2022/05/27 06:53:09;;;;;;;8.70;2.80;;;;;;;17.55;64.03;101964.00;4995822;28;20038;-61
2022/05/27 06:55:35;;;;;;;7.85;3.00;;;;;;;17.55;64.34;101966.81;5012025;28;20029;-61
2022/05/27 06:58:01;;;;;;;9.57;2.70;;;;;;;17.63;64.22;101971.91;5001973;28;20033;-61
2022/05/27 07:00:26;;;;;;;10.15;3.03;;;;;;;17.64;63.83;101970.78;5003553;28;20041;-61
2022/05/27 07:02:52;;;;;;;9.15;2.60;;;;;;;17.71;63.50;101971.38;4999693;28;20034;-61
2022/05/27 07:05:17;;;;;;;8.60;2.40;;;;;;;17.79;63.31;101972.84;5003368;28;20056;-61
2022/05/27 07:07:42;;;;;;;6.85;2.40;;;;;;;17.89;62.44;101979.34;5003637;28;20032;-61
2022/05/27 07:10:07;;;;;;;8.65;2.72;;;;;;;17.79;62.09;101979.31;5007114;28;20022;-61
2022/05/27 07:12:36;;;;;;;9.88;2.63;;;;;;;17.80;61.59;101982.97;5007405;28;20710;-61
2022/05/27 07:15:01;;;;;;;7.78;2.42;;;;;;;17.76;60.88;101979.84;5011306;28;20098;-60
2022/05/27 07:17:27;;;;;;;12.60;2.47;;;;;;;17.76;59.90;101968.63;5011721;28;20493;-61
2022/05/27 07:19:52;;;;;;;9.10;2.47;;;;;;;17.73;58.91;101971.97;5007026;28;20026;-61
2022/05/27 07:22:17;;;;;;;10.10;3.10;;;;;;;17.73;59.54;101980.38;5006388;28;20114;-61
2022/05/27 07:24:43;;;;;;;10.68;2.97;;;;;;;17.75;60.35;101977.31;5009289;28;20034;-61
2022/05/27 07:27:08;;;;;;;7.85;2.92;;;;;;;17.86;60.52;101979.91;5006831;28;20030;-61
2022/05/27 07:29:34;;;;;;;8.52;2.92;;;;;;;17.90;60.41;101972.63;5008553;28;20030;-60
2022/05/27 07:32:00;;;;;;;10.25;2.85;;;;;;;17.92;59.79;101983.59;5010390;28;20497;-62
2022/05/27 07:34:25;;;;;;;10.40;3.22;;;;;;;18.04;60.53;101981.38;5007047;28;20038;-59
2022/05/27 07:36:50;;;;;;;10.38;3.28;;;;;;;18.07;59.68;101979.97;5009988;28;20030;-60
2022/05/27 07:39:15;;;;;;;10.75;3.47;;;;;;;18.13;58.79;101978.88;5006832;28;20072;-60
2022/05/27 07:41:44;;;;;;;6.10;2.42;;;;;;;18.22;57.92;101985.63;5009990;28;20046;-60
2022/05/27 07:44:09;;;;;;;11.40;3.33;;;;;;;18.28;57.52;101980.88;5010587;28;20481;-60
2022/05/27 07:46:36;;;;;;;10.95;3.05;;;;;;;18.35;57.10;101989.88;5009179;28;20062;-60
2022/05/27 07:49:04;;;;;;;6.15;2.28;;;;;;;18.45;57.38;101991.88;5009185;28;20041;-60
2022/05/27 07:51:29;;;;;;;7.72;2.40;;;;;;;18.54;57.78;101998.63;5007101;28;20688;-60
2022/05/27 07:53:55;;;;;;;7.97;2.70;;;;;;;18.54;57.00;101993.00;5006252;28;20038;-60
2022/05/27 07:56:20;;;;;;;6.15;2.45;;;;;;;18.55;57.63;101994.69;5008542;28;20575;-60
2022/05/27 07:58:46;;;;;;;9.80;3.05;;;;;;;18.48;57.49;101986.53;5010752;28;20064;-60
2022/05/27 08:01:12;;;;;;;9.35;2.53;;;;;;;18.37;56.82;101994.09;5007666;28;20030;-59
2022/05/27 08:03:38;;;;;;;10.88;3.53;;;;;;;18.31;57.06;101989.63;5002484;28;20470;-61
2022/05/27 08:06:03;;;;;;;10.48;3.05;;;;;;;18.37;57.68;101991.28;5005656;28;20073;-61
2022/05/27 08:08:29;;;;;;;10.55;3.22;;;;;;;18.52;58.06;101986.84;5010433;28;20092;-61
2022/05/27 08:10:55;;;;;;;5.88;2.70;;;;;;;18.62;57.82;101982.03;5009336;28;20041;-62
2022/05/27 08:13:20;;;;;;;8.63;2.80;;;;;;;18.64;57.68;101991.06;5007672;28;20458;-64
2022/05/27 08:15:46;;;;;;;10.20;3.33;;;;;;;18.56;55.22;101999.22;5008367;28;20022;-63
2022/05/27 08:18:11;;;;;;;7.07;2.90;;;;;;;18.49;55.88;102015.50;5008179;28;20030;-62
2022/05/27 08:20:39;;;;;;;8.73;2.80;;;;;;;18.26;56.32;102020.50;5007587;28;20080;-62
2022/05/27 08:23:05;;;;;;;7.10;2.75;;;;;;;18.18;55.93;102012.59;5009507;28;20026;-62
2022/05/27 08:25:31;;;;;;;9.75;2.90;;;;;;;18.17;56.27;102024.97;5008558;28;20030;-62
2022/05/27 08:27:57;;;;;;;8.82;2.55;;;;;;;18.14;56.65;102022.72;5010635;28;20079;-60
2022/05/27 08:30:25;;;;;;;10.73;2.67;;;;;;;18.22;56.66;102015.72;5004337;28;20225;-60
2022/05/27 08:32:51;;;;;;;7.90;2.53;;;;;;;18.31;57.18;102022.47;5001535;28;20081;-61
2022/05/27 08:38:10;;;;;;;12.02;3.13;;;;;;;18.46;55.51;102007.63;5000436;28;20048;-61
2022/05/27 08:41:07;;;;;;;10.55;3.20;;;;;;;18.56;55.36;102010.44;5008882;28;20050;-61
2022/05/27 08:43:41;;;;;;;5.43;2.45;;;;;;;18.57;53.80;102006.50;5004471;28;20065;-61
2022/05/27 08:46:18;;;;;;;9.82;2.60;;;;;;;18.43;54.35;102020.28;5003751;28;20042;-60
2022/05/27 08:48:47;;;;;;;7.57;3.13;;;;;;;18.29;55.07;102017.13;4994662;28;20030;-60
2022/05/27 08:51:19;;;;;;;7.82;3.22;;;;;;;18.23;55.81;102023.00;5006527;28;20030;-60
2022/05/27 08:53:54;;;;;;;10.50;2.88;;;;;;;18.24;55.79;102027.53;5010184;28;20076;-61
2022/05/27 08:59:31;;;;;;;8.35;2.80;;;;;;;18.34;56.51;102021.91;5001784;28;20037;-60
2022/05/27 09:02:25;;;;;;;9.02;2.78;;;;;;;18.46;55.50;102016.03;5004621;28;20042;-60
2022/05/27 09:05:26;;;;;;;8.25;2.83;;;;;;;18.53;54.84;102033.50;5005722;28;20030;-60
2022/05/27 09:08:00;;;;;;;9.13;2.63;;;;;;;18.67;53.90;102029.03;5008353;28;20034;-60
2022/05/27 09:10:47;;;;;;;9.43;2.78;;;;;;;18.84;53.11;102025.97;5010676;28;20052;-60
2022/05/27 09:13:34;;;;;;;5.95;2.50;;;;;;;18.98;52.23;102035.56;5005892;28;20021;-61
2022/05/27 09:16:09;;;;;;;8.85;2.92;;;;;;;19.06;50.67;102032.19;5006645;28;20026;-61
2022/05/27 09:18:54;;;;;;;7.38;2.47;;;;;;;19.10;50.99;102033.31;5005385;28;20229;-60
2022/05/27 09:21:30;;;;;;;8.18;2.50;;;;;;;18.97;49.38;102031.03;5004792;28;20062;-60
2022/05/27 09:24:08;;;;;;;7.40;2.80;;;;;;;18.91;48.35;102035.00;5007792;28;20057;-60
2022/05/27 09:26:54;;;;;;;7.38;2.65;;;;;;;18.97;50.30;102044.25;5001896;28;20026;-60
2022/05/27 09:29:40;;;;;;;11.65;2.50;;;;;;;18.90;49.58;102050.16;5007228;28;20435;-60
2022/05/27 09:32:21;;;;;;;7.53;1.92;;;;;;;18.87;49.60;102054.41;5007376;28;20062;-60
2022/05/27 09:34:49;;;;;;;8.88;2.53;;;;;;;18.77;48.73;102053.53;5004333;28;20060;-59
2022/05/27 09:37:26;;;;;;;9.40;2.47;;;;;;;18.86;49.11;102055.53;5008823;28;20503;-60
2022/05/27 09:39:55;;;;;;;9.18;2.63;;;;;;;19.00;49.51;102054.97;5004206;28;20064;-60
2022/05/27 09:42:36;;;;;;;7.68;2.30;;;;;;;19.11;49.29;102053.84;5008716;28;20029;-60
2022/05/27 09:45:03;;;;;;;8.85;2.80;;;;;;;19.02;48.33;102063.97;5005957;28;20050;-60
2022/05/27 09:47:32;;;;;;;8.10;3.58;;;;;;;18.85;47.36;102073.50;5010602;28;20048;-60
2022/05/27 09:50:17;;;;;;;8.93;2.45;;;;;;;18.95;48.55;102071.84;5008946;28;20099;-60
2022/05/27 09:52:44;;;;;;;8.05;2.83;;;;;;;19.08;47.53;102071.28;5004156;28;20045;-61
2022/05/27 09:55:34;;;;;;;9.13;2.65;;;;;;;19.06;46.55;102073.53;5009500;28;20033;-61
2022/05/27 09:58:02;;;;;;;11.32;2.65;;;;;;;19.12;46.37;102072.41;5004747;28;20052;-60
2022/05/27 10:00:36;;;;;;;9.38;2.63;;;;;;;19.24;46.71;102072.13;5011010;28;20482;-61
2022/05/27 10:03:24;;;;;;;8.18;2.45;;;;;;;19.37;47.39;102066.78;5009841;28;20038;-61
2022/05/27 10:05:52;;;;;;;9.80;2.47;;;;;;;19.48;44.90;102078.03;5010458;28;20048;-61
2022/05/27 10:08:33;;;;;;;10.05;2.50;;;;;;;19.47;46.13;102074.38;5002770;28;20030;-61
2022/05/27 10:11:17;;;;;;;10.75;2.80;;;;;;;19.49;44.92;102074.94;5007778;28;20046;-60
2022/05/27 10:13:42;;;;;;;12.10;2.75;;;;;;;19.54;44.40;102076.91;5008623;28;20029;-61
2022/05/27 10:16:28;;;;;;;12.25;2.65;;;;;;;19.57;44.85;102067.84;5000652;28;20042;-61
2022/05/27 10:19:13;;;;;;;9.38;2.53;;;;;;;19.61;44.32;102075.50;5008463;28;20045;-61
2022/05/27 10:21:54;;;;;;;8.85;2.42;;;;;;;19.73;44.92;102075.22;5008515;28;20481;-61
2022/05/27 10:24:26;;;;;;;7.55;2.15;;;;;;;19.84;43.49;102071.22;5007657;28;20040;-61
2022/05/27 10:27:20;;;;;;;11.60;3.10;;;;;;;19.79;44.07;102079.69;5007078;28;20038;-61
2022/05/27 10:29:58;;;;;;;14.40;2.80;;;;;;;19.63;43.80;102080.84;5006670;28;20088;-62
2022/05/27 10:32:26;;;;;;;15.25;3.25;;;;;;;19.38;43.35;102078.91;5009264;28;20034;-61
2022/05/27 10:34:52;;;;;;;9.32;3.00;;;;;;;19.36;43.35;102081.97;5007995;28;20041;-62
2022/05/27 10:37:22;;;;;;;11.43;2.55;;;;;;;19.34;43.62;102081.44;5009850;28;20026;-61
2022/05/27 10:40:29;;;;;;;10.45;2.60;;;;;;;19.47;45.04;102079.16;5007252;28;20521;-62
2022/05/27 10:43:16;;;;;;;10.50;2.67;;;;;;;19.49;42.78;102080.56;5005310;28;20409;-62
2022/05/27 10:45:47;;;;;;;11.95;3.17;;;;;;;19.33;42.54;102090.97;5003801;28;20030;-62
2022/05/27 10:49:01;;;;;;;10.15;2.83;;;;;;;19.25;43.23;102088.72;5001220;28;20113;-62
2022/05/27 10:51:56;;;;;;;12.88;2.88;;;;;;;19.34;43.78;102086.22;5008322;28;20129;-62
2022/05/27 10:54:51;;;;;;;9.70;2.55;;;;;;;19.33;42.96;102087.31;5009492;28;20080;-62
2022/05/27 11:03:23;;;;;;;11.68;2.65;;;;;;;19.77;43.11;102079.16;5005395;28;20425;-62
2022/05/27 11:06:26;;;;;;;7.80;2.50;;;;;;;19.93;43.31;102084.75;5006167;28;20552;-61
2022/05/27 11:09:22;;;;;;;9.55;2.50;;;;;;;20.01;43.40;102085.00;4980563;28;20049;-58
2022/05/27 11:11:52;;;;;;;9.55;2.70;;;;;;;20.05;40.57;102076.81;5004853;28;20018;-59
2022/05/27 11:17:48;;;;;;;8.60;2.55;;;;;;;19.79;42.00;102099.41;5008115;28;20137;-61
2022/05/27 11:20:41;;;;;;;11.10;2.40;;;;;;;19.73;41.91;102091.25;5002117;28;20034;-61
2022/05/27 11:23:54;;;;;;;7.82;2.65;;;;;;;19.65;42.32;102072.97;4999850;28;20025;-62
2022/05/27 11:26:40;;;;;;;9.23;2.97;;;;;;;19.56;41.85;102085.91;4997635;28;20474;-61
2022/05/27 11:29:29;;;;;;;10.10;2.67;;;;;;;19.47;41.05;102085.63;5001659;28;20033;-61
2022/05/27 11:32:01;;;;;;;9.77;2.65;;;;;;;19.53;40.91;102094.91;4973712;28;20049;-61
2022/05/27 11:34:52;;;;;;;9.32;2.65;;;;;;;19.70;42.52;102089.84;5007724;28;20030;-61
2022/05/27 11:37:33;;;;;;;7.93;2.50;;;;;;;19.70;43.11;102097.47;5004871;28;20117;-61
2022/05/27 11:40:20;;;;;;;10.70;3.05;;;;;;;19.72;43.72;102098.00;5007064;28;20077;-61
2022/05/27 11:43:20;;;;;;;10.02;2.85;;;;;;;19.78;43.90;102097.72;4994327;28;20092;-60
2022/05/27 11:45:59;;;;;;;10.23;2.92;;;;;;;19.81;42.50;102093.50;4996561;28;20038;-60
2022/05/27 11:48:52;;;;;;;6.75;2.65;;;;;;;19.76;42.30;102105.59;5005209;28;20037;-60
2022/05/27 11:51:39;;;;;;;12.98;2.65;;;;;;;19.66;41.53;102099.16;5006713;28;20080;-59
2022/05/27 11:54:26;;;;;;;11.32;2.60;;;;;;;19.70;42.38;102103.94;4997341;28;20857;-60
2022/05/27 11:57:16;;;;;;;6.88;2.83;;;;;;;19.74;42.52;102102.25;5007028;28;20884;-60
2022/05/27 11:59:49;;;;;;;11.13;2.97;;;;;;;19.83;41.25;102105.31;4999992;28;20465;-60
2022/05/27 12:02:33;;;;;;;7.68;2.42;;;;;;;19.80;41.02;102095.44;4994643;28;20386;-61
2022/05/27 12:05:09;;;;;;;7.72;2.40;;;;;;;19.80;41.56;102098.28;5004686;28;20030;-61
2022/05/27 12:07:48;;;;;;;8.85;2.80;;;;;;;19.87;41.45;102097.97;5007099;28;20026;-61
2022/05/27 12:10:34;;;;;;;9.52;2.78;;;;;;;19.89;40.96;102106.16;5009346;28;20022;-61
2022/05/27 12:13:17;;;;;;;13.82;2.97;;;;;;;19.96;41.92;102101.88;5007228;28;20034;-61
2022/05/27 12:15:49;;;;;;;8.43;2.63;;;;;;;20.02;40.92;102102.72;5002690;28;20037;-61
2022/05/27 12:18:28;;;;;;;13.18;3.20;;;;;;;19.99;40.19;102098.50;5001887;28;20034;-61
2022/05/27 12:20:55;;;;;;;8.85;2.50;;;;;;;19.98;40.79;102102.47;4997446;28;20042;-60